sensor_id;sensor_type;location;lat;lon;timestamp;pressure;altitude;pressure_sealevel;temperature;humidity
51031;BME280;37058;41.442;23.240;2022-08-25T00:01:49;100145.66;;;21.02;100.00
51031;BME280;37058;41.442;23.240;2022-08-25T00:04:17;100141.06;;;21.06;100.00
51031;BME280;37058;41.442;23.240;2022-08-25T00:06:44;100141.06;;;21.06;100.00
51031;BME280;37058;41.442;23.240;2022-08-25T00:09:14;100144.31;;;21.08;100.00
51031;BME280;37058;41.442;23.240;2022-08-25T00:11:41;100126.06;;;21.07;100.00
51031;BME280;37058;41.442;23.240;2022-08-25T00:14:17;100128.97;;;21.11;100.00
51031;BME280;37058;41.442;23.240;2022-08-25T00:16:44;100134.22;;;21.12;100.00
51031;BME280;37058;41.442;23.240;2022-08-25T00:19:20;100143.16;;;21.18;99.66
51031;BME280;37058;41.442;23.240;2022-08-25T00:21:47;100141.56;;;21.17;98.88
51031;BME280;37058;41.442;23.240;2022-08-25T00:24:15;100131.09;;;21.14;98.84
51031;BME280;37058;41.442;23.240;2022-08-25T00:26:45;100134.53;;;21.11;100.00
51031;BME280;37058;41.442;23.240;2022-08-25T00:29:11;100131.44;;;21.12;100.00
51031;BME280;37058;41.442;23.240;2022-08-25T00:31:40;100129.47;;;21.13;99.96
51031;BME280;37058;41.442;23.240;2022-08-25T00:34:15;100119.03;;;21.10;100.00
51031;BME280;37058;41.442;23.240;2022-08-25T00:36:43;100114.13;;;21.07;100.00
51031;BME280;37058;41.442;23.240;2022-08-25T00:39:10;100104.66;;;21.08;100.00
51031;BME280;37058;41.442;23.240;2022-08-25T00:41:40;100115.75;;;21.08;100.00
51031;BME280;37058;41.442;23.240;2022-08-25T00:44:14;100132.56;;;21.11;100.00
51031;BME280;37058;41.442;23.240;2022-08-25T00:46:51;100147.59;;;21.10;100.00
51031;BME280;37058;41.442;23.240;2022-08-25T00:49:23;100141.25;;;21.10;100.00
51031;BME280;37058;41.442;23.240;2022-08-25T00:52:27;100144.84;;;21.02;100.00
51031;BME280;37058;41.442;23.240;2022-08-25T00:55:56;100137.81;;;20.95;100.00
51031;BME280;37058;41.442;23.240;2022-08-25T00:58:21;100126.72;;;20.95;100.00
51031;BME280;37058;41.442;23.240;2022-08-25T01:00:51;100139.47;;;20.96;100.00
51031;BME280;37058;41.442;23.240;2022-08-25T01:03:20;100140.59;;;20.95;100.00
51031;BME280;37058;41.442;23.240;2022-08-25T01:05:46;100146.66;;;20.97;100.00
51031;BME280;37058;41.442;23.240;2022-08-25T01:08:13;100142.25;;;20.96;100.00
51031;BME280;37058;41.442;23.240;2022-08-25T01:10:42;100138.31;;;20.97;100.00
51031;BME280;37058;41.442;23.240;2022-08-25T01:13:19;100135.53;;;20.97;100.00
51031;BME280;37058;41.442;23.240;2022-08-25T01:15:51;100118.88;;;20.97;100.00
51031;BME280;37058;41.442;23.240;2022-08-25T01:18:18;100110.06;;;20.95;100.00
51031;BME280;37058;41.442;23.240;2022-08-25T01:20:57;100118.88;;;20.97;100.00
51031;BME280;37058;41.442;23.240;2022-08-25T01:23:25;100126.72;;;20.95;100.00
51031;BME280;37058;41.442;23.240;2022-08-25T01:25:57;100125.59;;;20.96;100.00
51031;BME280;37058;41.442;23.240;2022-08-25T01:28:26;100120.69;;;20.93;100.00
51031;BME280;37058;41.442;23.240;2022-08-25T01:30:52;100122.31;;;20.94;100.00
51031;BME280;37058;41.442;23.240;2022-08-25T01:33:19;100117.59;;;20.95;100.00
51031;BME280;37058;41.442;23.240;2022-08-25T01:35:46;100116.09;;;20.97;100.00
51031;BME280;37058;41.442;23.240;2022-08-25T01:38:12;100120.03;;;20.96;100.00
51031;BME280;37058;41.442;23.240;2022-08-25T01:40:40;100125.72;;;21.00;100.00
51031;BME280;37058;41.442;23.240;2022-08-25T01:45:43;100104.19;;;20.97;100.00
51031;BME280;37058;41.442;23.240;2022-08-25T01:48:11;100096.84;;;20.92;100.00
51031;BME280;37058;41.442;23.240;2022-08-25T01:50:40;100101.59;;;20.92;100.00
51031;BME280;37058;41.442;23.240;2022-08-25T01:55:40;100093.25;;;20.83;100.00
51031;BME280;37058;41.442;23.240;2022-08-25T01:58:32;100086.09;;;20.82;100.00
51031;BME280;37058;41.442;23.240;2022-08-25T02:01:08;100071.91;;;20.75;100.00
51031;BME280;37058;41.442;23.240;2022-08-25T02:03:41;100071.75;;;20.71;100.00
51031;BME280;37058;41.442;23.240;2022-08-25T02:06:09;100078.94;;;20.72;100.00
51031;BME280;37058;41.442;23.240;2022-08-25T02:08:36;100092.47;;;20.65;100.00
51031;BME280;37058;41.442;23.240;2022-08-25T02:11:03;100067.84;;;20.64;100.00
51031;BME280;37058;41.442;23.240;2022-08-25T02:13:29;100068.97;;;20.63;100.00
51031;BME280;37058;41.442;23.240;2022-08-25T02:15:57;100074.69;;;20.58;100.00
51031;BME280;37058;41.442;23.240;2022-08-25T02:18:24;100086.28;;;20.51;100.00
51031;BME280;37058;41.442;23.240;2022-08-25T02:20:50;100096.53;;;20.50;100.00
51031;BME280;37058;41.442;23.240;2022-08-25T02:23:17;100103.25;;;20.58;100.00
51031;BME280;37058;41.442;23.240;2022-08-25T02:25:43;100108.97;;;20.62;100.00
51031;BME280;37058;41.442;23.240;2022-08-25T02:28:09;100122.50;;;20.63;100.00
51031;BME280;37058;41.442;23.240;2022-08-25T02:30:37;100116.81;;;20.60;100.00
51031;BME280;37058;41.442;23.240;2022-08-25T02:33:03;100115.66;;;20.61;100.00
51031;BME280;37058;41.442;23.240;2022-08-25T02:35:29;100117.47;;;20.56;100.00
51031;BME280;37058;41.442;23.240;2022-08-25T02:37:55;100121.69;;;20.54;100.00
51031;BME280;37058;41.442;23.240;2022-08-25T02:40:21;100134.56;;;20.50;100.00
51031;BME280;37058;41.442;23.240;2022-08-25T02:42:49;100145.81;;;20.36;100.00
51031;BME280;37058;41.442;23.240;2022-08-25T02:45:16;100142.84;;;20.15;100.00
51031;BME280;37058;41.442;23.240;2022-08-25T02:47:43;100152.41;;;20.00;100.00
51031;BME280;37058;41.442;23.240;2022-08-25T02:50:10;100144.41;;;19.81;100.00
51031;BME280;37058;41.442;23.240;2022-08-25T02:52:37;100129.53;;;19.77;100.00
51031;BME280;37058;41.442;23.240;2022-08-25T02:55:06;100134.28;;;19.77;100.00
51031;BME280;37058;41.442;23.240;2022-08-25T02:57:33;100119.28;;;19.78;100.00
51031;BME280;37058;41.442;23.240;2022-08-25T02:59:59;100135.78;;;19.83;100.00
51031;BME280;37058;41.442;23.240;2022-08-25T03:02:26;100140.97;;;19.84;100.00
51031;BME280;37058;41.442;23.240;2022-08-25T03:04:53;100137.25;;;19.89;100.00
51031;BME280;37058;41.442;23.240;2022-08-25T03:07:20;100121.13;;;19.91;100.00
51031;BME280;37058;41.442;23.240;2022-08-25T03:09:47;100123.22;;;19.94;100.00
51031;BME280;37058;41.442;23.240;2022-08-25T03:12:13;100151.44;;;19.96;100.00
51031;BME280;37058;41.442;23.240;2022-08-25T03:14:39;100164.66;;;19.99;100.00
51031;BME280;37058;41.442;23.240;2022-08-25T03:17:07;100164.00;;;20.02;100.00
51031;BME280;37058;41.442;23.240;2022-08-25T03:19:34;100164.19;;;20.06;100.00
51031;BME280;37058;41.442;23.240;2022-08-25T03:22:00;100159.47;;;20.06;100.00
51031;BME280;37058;41.442;23.240;2022-08-25T03:24:26;100154.41;;;20.08;100.00
51031;BME280;37058;41.442;23.240;2022-08-25T03:26:53;100157.34;;;20.12;100.00
51031;BME280;37058;41.442;23.240;2022-08-25T03:29:26;100147.75;;;20.18;100.00
51031;BME280;37058;41.442;23.240;2022-08-25T03:31:54;100138.94;;;20.16;100.00
51031;BME280;37058;41.442;23.240;2022-08-25T03:34:23;100139.28;;;20.23;100.00
51031;BME280;37058;41.442;23.240;2022-08-25T03:36:51;100147.75;;;20.27;100.00
51031;BME280;37058;41.442;23.240;2022-08-25T03:39:21;100128.50;;;20.30;100.00
51031;BME280;37058;41.442;23.240;2022-08-25T03:41:47;100124.09;;;20.29;100.00
51031;BME280;37058;41.442;23.240;2022-08-25T03:44:16;100129.00;;;20.32;100.00
51031;BME280;37058;41.442;23.240;2022-08-25T03:46:49;100119.22;;;20.35;100.00
51031;BME280;37058;41.442;23.240;2022-08-25T03:49:21;100121.97;;;20.35;100.00
51031;BME280;37058;41.442;23.240;2022-08-25T03:51:50;100114.97;;;20.38;100.00
51031;BME280;37058;41.442;23.240;2022-08-25T03:54:20;100109.44;;;20.38;100.00
51031;BME280;37058;41.442;23.240;2022-08-25T03:56:46;100108.31;;;20.39;100.00
51031;BME280;37058;41.442;23.240;2022-08-25T03:59:13;100105.19;;;20.40;100.00
51031;BME280;37058;41.442;23.240;2022-08-25T04:01:41;100108.31;;;20.39;100.00
51031;BME280;37058;41.442;23.240;2022-08-25T04:04:10;100102.41;;;20.40;100.00
51031;BME280;37058;41.442;23.240;2022-08-25T04:06:38;100105.69;;;20.42;100.00
51031;BME280;37058;41.442;23.240;2022-08-25T04:09:05;100110.56;;;20.45;100.00
51031;BME280;37058;41.442;23.240;2022-08-25T04:11:31;100107.78;;;20.45;100.00
51031;BME280;37058;41.442;23.240;2022-08-25T04:13:58;100091.34;;;20.49;100.00
51031;BME280;37058;41.442;23.240;2022-08-25T04:16:32;100092.00;;;20.54;100.00
51031;BME280;37058;41.442;23.240;2022-08-25T04:19:02;100089.72;;;20.56;100.00
51031;BME280;37058;41.442;23.240;2022-08-25T04:21:29;100088.22;;;20.50;100.00
51031;BME280;37058;41.442;23.240;2022-08-25T04:23:56;100091.00;;;20.50;100.00
51031;BME280;37058;41.442;23.240;2022-08-25T04:26:51;100084.81;;;20.53;100.00
51031;BME280;37058;41.442;23.240;2022-08-25T04:29:21;100089.50;;;20.53;100.00
51031;BME280;37058;41.442;23.240;2022-08-25T04:31:48;100091.81;;;20.51;100.00
51031;BME280;37058;41.442;23.240;2022-08-25T04:34:19;100094.94;;;20.58;100.00
51031;BME280;37058;41.442;23.240;2022-08-25T04:36:45;100085.31;;;20.55;100.00
51031;BME280;37058;41.442;23.240;2022-08-25T04:39:12;100085.47;;;20.42;100.00
51031;BME280;37058;41.442;23.240;2022-08-25T04:41:38;100078.59;;;20.39;100.00
51031;BME280;37058;41.442;23.240;2022-08-25T04:44:05;100074.69;;;20.40;100.00
51031;BME280;37058;41.442;23.240;2022-08-25T04:46:33;100070.94;;;20.45;100.00
51031;BME280;37058;41.442;23.240;2022-08-25T04:49:00;100081.34;;;20.48;100.00
51031;BME280;37058;41.442;23.240;2022-08-25T04:51:34;100084.78;;;20.45;100.00
51031;BME280;37058;41.442;23.240;2022-08-25T04:54:05;100077.28;;;20.45;100.00
51031;BME280;37058;41.442;23.240;2022-08-25T04:56:33;100079.41;;;20.48;100.00
51031;BME280;37058;41.442;23.240;2022-08-25T04:59:09;100076.34;;;20.59;100.00
51031;BME280;37058;41.442;23.240;2022-08-25T05:01:38;100076.19;;;20.64;100.00
51031;BME280;37058;41.442;23.240;2022-08-25T05:04:06;100083.97;;;20.70;100.00
51031;BME280;37058;41.442;23.240;2022-08-25T05:06:33;100090.66;;;20.78;100.00
51031;BME280;37058;41.442;23.240;2022-08-25T05:09:00;100087.22;;;20.81;100.00
51031;BME280;37058;41.442;23.240;2022-08-25T05:11:27;100083.81;;;20.84;100.00
51031;BME280;37058;41.442;23.240;2022-08-25T05:13:54;100088.53;;;20.92;100.00
51031;BME280;37058;41.442;23.240;2022-08-25T05:16:23;100090.63;;;20.95;100.00
51031;BME280;37058;41.442;23.240;2022-08-25T05:18:50;100086.72;;;20.96;100.00
51031;BME280;37058;41.442;23.240;2022-08-25T05:21:22;100087.00;;;21.04;100.00
51031;BME280;37058;41.442;23.240;2022-08-25T05:23:49;100081.25;;;21.17;100.00
51031;BME280;37058;41.442;23.240;2022-08-25T05:26:20;100081.22;;;21.26;100.00
51031;BME280;37058;41.442;23.240;2022-08-25T05:28:49;100073.88;;;21.30;100.00
51031;BME280;37058;41.442;23.240;2022-08-25T05:31:15;100073.03;;;21.38;100.00
51031;BME280;37058;41.442;23.240;2022-08-25T05:33:42;100071.72;;;21.36;100.00
51031;BME280;37058;41.442;23.240;2022-08-25T05:36:10;100065.50;;;21.39;100.00
51031;BME280;37058;41.442;23.240;2022-08-25T05:38:38;100069.06;;;21.48;100.00
51031;BME280;37058;41.442;23.240;2022-08-25T05:41:12;100070.66;;;21.58;100.00
51031;BME280;37058;41.442;23.240;2022-08-25T05:43:40;100073.75;;;21.65;100.00
51031;BME280;37058;41.442;23.240;2022-08-25T05:46:07;100070.56;;;21.75;100.00
51031;BME280;37058;41.442;23.240;2022-08-25T05:48:33;100065.75;;;21.84;100.00
51031;BME280;37058;41.442;23.240;2022-08-25T05:51:01;100071.94;;;21.90;99.69
51031;BME280;37058;41.442;23.240;2022-08-25T05:53:29;100079.91;;;22.00;98.45
51031;BME280;37058;41.442;23.240;2022-08-25T05:55:57;100081.00;;;22.08;97.80
51031;BME280;37058;41.442;23.240;2022-08-25T05:58:25;100072.25;;;22.18;99.64
51031;BME280;37058;41.442;23.240;2022-08-25T06:00:57;100065.63;;;22.32;98.48
51031;BME280;37058;41.442;23.240;2022-08-25T06:03:44;100064.31;;;22.29;97.31
51031;BME280;37058;41.442;23.240;2022-08-25T06:06:10;100057.97;;;22.28;97.57
51031;BME280;37058;41.442;23.240;2022-08-25T06:08:36;100060.53;;;22.34;97.02
51031;BME280;37058;41.442;23.240;2022-08-25T06:11:02;100067.28;;;22.45;96.02
51031;BME280;37058;41.442;23.240;2022-08-25T06:13:27;100058.88;;;22.54;94.10
51031;BME280;37058;41.442;23.240;2022-08-25T06:15:58;100055.81;;;22.80;93.47
51031;BME280;37058;41.442;23.240;2022-08-25T06:18:25;100057.81;;;23.37;91.41
51031;BME280;37058;41.442;23.240;2022-08-25T06:20:51;100057.59;;;23.42;88.54
51031;BME280;37058;41.442;23.240;2022-08-25T06:23:18;100057.13;;;23.52;87.64
51031;BME280;37058;41.442;23.240;2022-08-25T06:25:53;100050.38;;;23.53;87.75
51031;BME280;37058;41.442;23.240;2022-08-25T06:28:21;100052.00;;;23.54;87.41
51031;BME280;37058;41.442;23.240;2022-08-25T06:30:47;100045.28;;;23.43;86.90
51031;BME280;37058;41.442;23.240;2022-08-25T06:33:13;100048.63;;;23.36;87.01
51031;BME280;37058;41.442;23.240;2022-08-25T06:35:42;100056.50;;;23.34;87.67
51031;BME280;37058;41.442;23.240;2022-08-25T06:38:09;100059.91;;;23.28;88.94
51031;BME280;37058;41.442;23.240;2022-08-25T06:40:36;100059.09;;;23.27;89.07
51031;BME280;37058;41.442;23.240;2022-08-25T06:43:03;100058.63;;;23.25;88.48
51031;BME280;37058;41.442;23.240;2022-08-25T06:45:33;100050.13;;;23.22;88.36
51031;BME280;37058;41.442;23.240;2022-08-25T06:47:59;100048.75;;;23.28;87.10
51031;BME280;37058;41.442;23.240;2022-08-25T06:50:25;100050.72;;;23.27;88.09
51031;BME280;37058;41.442;23.240;2022-08-25T06:52:51;100050.50;;;23.32;88.20
51031;BME280;37058;41.442;23.240;2022-08-25T06:55:17;100042.72;;;23.38;88.46
51031;BME280;37058;41.442;23.240;2022-08-25T06:57:43;100037.38;;;23.45;88.21
51031;BME280;37058;41.442;23.240;2022-08-25T07:00:10;100042.50;;;23.55;86.19
51031;BME280;37058;41.442;23.240;2022-08-25T07:02:36;100027.28;;;23.65;86.17
51031;BME280;37058;41.442;23.240;2022-08-25T07:05:04;100024.97;;;24.08;85.71
51031;BME280;37058;41.442;23.240;2022-08-25T07:07:31;100024.31;;;24.67;83.00
51031;BME280;37058;41.442;23.240;2022-08-25T07:09:57;100026.69;;;25.13;80.82
51031;BME280;37058;41.442;23.240;2022-08-25T07:12:23;100016.22;;;25.57;78.61
51031;BME280;37058;41.442;23.240;2022-08-25T07:14:49;100023.94;;;25.96;77.95
51031;BME280;37058;41.442;23.240;2022-08-25T07:17:15;100024.97;;;26.26;76.59
51031;BME280;37058;41.442;23.240;2022-08-25T07:19:42;100015.25;;;26.20;74.62
51031;BME280;37058;41.442;23.240;2022-08-25T07:22:08;100025.34;;;26.44;74.64
51031;BME280;37058;41.442;23.240;2022-08-25T07:24:33;100023.69;;;26.43;74.20
51031;BME280;37058;41.442;23.240;2022-08-25T07:26:59;100032.47;;;26.61;73.11
51031;BME280;37058;41.442;23.240;2022-08-25T07:29:27;100023.72;;;26.63;72.92
51031;BME280;37058;41.442;23.240;2022-08-25T07:31:54;100021.66;;;26.59;75.25
51031;BME280;37058;41.442;23.240;2022-08-25T07:34:20;100014.56;;;26.66;73.18
51031;BME280;37058;41.442;23.240;2022-08-25T07:37:04;100010.78;;;26.77;73.04
51031;BME280;37058;41.442;23.240;2022-08-25T07:39:32;100009.69;;;26.82;70.90
51031;BME280;37058;41.442;23.240;2022-08-25T07:41:59;100015.97;;;26.75;72.10
51031;BME280;37058;41.442;23.240;2022-08-25T07:44:26;100004.22;;;26.89;71.74
51031;BME280;37058;41.442;23.240;2022-08-25T07:46:52;100015.97;;;26.98;72.61
51031;BME280;37058;41.442;23.240;2022-08-25T07:49:21;100008.19;;;27.11;71.95
51031;BME280;37058;41.442;23.240;2022-08-25T07:51:47;100004.41;;;27.23;70.38
51031;BME280;37058;41.442;23.240;2022-08-25T07:54:13;100003.13;;;27.43;70.24
51031;BME280;37058;41.442;23.240;2022-08-25T07:56:39;99998.47;;;27.55;70.38
51031;BME280;37058;41.442;23.240;2022-08-25T07:59:08;100002.75;;;27.72;70.10
51031;BME280;37058;41.442;23.240;2022-08-25T08:01:34;100009.25;;;27.79;69.70
51031;BME280;37058;41.442;23.240;2022-08-25T08:04:00;99995.72;;;27.85;68.77
51031;BME280;37058;41.442;23.240;2022-08-25T08:06:26;100003.97;;;28.01;68.04
51031;BME280;37058;41.442;23.240;2022-08-25T08:08:53;100003.25;;;28.07;66.81
51031;BME280;37058;41.442;23.240;2022-08-25T08:11:26;100003.81;;;28.20;66.07
51031;BME280;37058;41.442;23.240;2022-08-25T08:13:55;99996.25;;;28.24;66.92
51031;BME280;37058;41.442;23.240;2022-08-25T08:16:26;99996.56;;;28.16;65.55
51031;BME280;37058;41.442;23.240;2022-08-25T08:18:52;100006.56;;;28.13;66.33
51031;BME280;37058;41.442;23.240;2022-08-25T08:21:23;99991.25;;;28.10;66.22
51031;BME280;37058;41.442;23.240;2022-08-25T08:23:50;99993.34;;;28.17;66.44
51031;BME280;37058;41.442;23.240;2022-08-25T08:26:17;99986.22;;;28.23;66.07
51031;BME280;37058;41.442;23.240;2022-08-25T08:28:44;99989.84;;;28.27;66.71
51031;BME280;37058;41.442;23.240;2022-08-25T08:31:10;99989.94;;;28.35;67.70
51031;BME280;37058;41.442;23.240;2022-08-25T08:33:37;99990.16;;;28.49;66.73
51031;BME280;37058;41.442;23.240;2022-08-25T08:36:09;99991.41;;;28.55;65.49
51031;BME280;37058;41.442;23.240;2022-08-25T08:38:39;99995.16;;;28.66;64.50
51031;BME280;37058;41.442;23.240;2022-08-25T08:52:53;99979.34;;;28.92;61.77
51031;BME280;37058;41.442;23.240;2022-08-25T08:58:23;99973.47;;;29.08;59.03
51031;BME280;37058;41.442;23.240;2022-08-25T09:00:55;99981.53;;;29.09;59.08
51031;BME280;37058;41.442;23.240;2022-08-25T09:03:40;99975.50;;;29.11;59.99
51031;BME280;37058;41.442;23.240;2022-08-25T09:06:19;99972.31;;;29.16;59.20
51031;BME280;37058;41.442;23.240;2022-08-25T09:08:47;99974.41;;;29.23;60.47
51031;BME280;37058;41.442;23.240;2022-08-25T09:18:07;99958.31;;;29.23;60.36
51031;BME280;37058;41.442;23.240;2022-08-25T09:20:52;99952.34;;;29.32;59.19
51031;BME280;37058;41.442;23.240;2022-08-25T09:30:06;99952.44;;;29.46;57.58
51031;BME280;37058;41.442;23.240;2022-08-25T09:32:46;99954.47;;;29.49;59.99
51031;BME280;37058;41.442;23.240;2022-08-25T09:35:34;99953.28;;;29.50;57.40
51031;BME280;37058;41.442;23.240;2022-08-25T09:38:05;99943.63;;;29.48;57.62
51031;BME280;37058;41.442;23.240;2022-08-25T09:40:43;99942.41;;;29.49;56.44
51031;BME280;37058;41.442;23.240;2022-08-25T09:43:51;99933.94;;;29.42;53.44
51031;BME280;37058;41.442;23.240;2022-08-25T09:46:15;99939.59;;;29.49;56.85
51031;BME280;37058;41.442;23.240;2022-08-25T09:48:51;99932.38;;;29.51;55.74
51031;BME280;37058;41.442;23.240;2022-08-25T09:51:35;99933.22;;;29.55;54.48
51031;BME280;37058;41.442;23.240;2022-08-25T09:56:52;99915.88;;;29.50;54.59
51031;BME280;37058;41.442;23.240;2022-08-25T09:59:34;99916.75;;;29.57;54.78
51031;BME280;37058;41.442;23.240;2022-08-25T10:02:24;99914.41;;;29.67;54.15
51031;BME280;37058;41.442;23.240;2022-08-25T10:04:51;99923.66;;;29.67;50.69
51031;BME280;37058;41.442;23.240;2022-08-25T10:07:37;99929.28;;;29.67;53.05
51031;BME280;37058;41.442;23.240;2022-08-25T10:10:17;99918.06;;;29.74;53.52
51031;BME280;37058;41.442;23.240;2022-08-25T10:12:46;99917.25;;;29.77;53.54
51031;BME280;37058;41.442;23.240;2022-08-25T10:15:26;99915.69;;;29.84;54.86
51031;BME280;37058;41.442;23.240;2022-08-25T10:17:53;99916.47;;;29.73;50.89
51031;BME280;37058;41.442;23.240;2022-08-25T10:20:24;99902.72;;;29.65;50.76
51031;BME280;37058;41.442;23.240;2022-08-25T10:22:51;99906.31;;;29.62;51.49
51031;BME280;37058;41.442;23.240;2022-08-25T10:25:27;99896.69;;;29.63;50.92
51031;BME280;37058;41.442;23.240;2022-08-25T10:28:14;99896.72;;;29.70;50.51
51031;BME280;37058;41.442;23.240;2022-08-25T10:31:24;99889.91;;;29.71;49.47
51031;BME280;37058;41.442;23.240;2022-08-25T10:36:46;99885.09;;;29.71;49.00
51031;BME280;37058;41.442;23.240;2022-08-25T10:42:24;99885.94;;;29.86;51.78
51031;BME280;37058;41.442;23.240;2022-08-25T10:45:16;99879.56;;;29.96;51.48
51031;BME280;37058;41.442;23.240;2022-08-25T10:56:22;99862.63;;;29.89;50.60
51031;BME280;37058;41.442;23.240;2022-08-25T11:04:47;99857.06;;;30.03;52.21
51031;BME280;37058;41.442;23.240;2022-08-25T11:07:40;99853.84;;;30.01;52.06
51031;BME280;37058;41.442;23.240;2022-08-25T11:10:18;99844.53;;;29.83;50.97
51031;BME280;37058;41.442;23.240;2022-08-25T11:12:48;99839.28;;;29.78;51.87
51031;BME280;37058;41.442;23.240;2022-08-25T11:15:34;99833.28;;;29.87;50.96
51031;BME280;37058;41.442;23.240;2022-08-25T11:18:10;99830.88;;;29.92;49.70
51031;BME280;37058;41.442;23.240;2022-08-25T11:23:52;99824.09;;;30.11;48.85
51031;BME280;37058;41.442;23.240;2022-08-25T11:26:29;99828.09;;;30.17;48.61
51031;BME280;37058;41.442;23.240;2022-08-25T11:29:11;99816.03;;;30.20;47.94
51031;BME280;37058;41.442;23.240;2022-08-25T11:31:45;99826.97;;;30.29;48.42
51031;BME280;37058;41.442;23.240;2022-08-25T11:34:13;99814.47;;;30.30;47.86
51031;BME280;37058;41.442;23.240;2022-08-25T11:36:48;99805.63;;;30.28;47.04
51031;BME280;37058;41.442;23.240;2022-08-25T11:45:07;99791.91;;;30.16;47.44
51031;BME280;37058;41.442;23.240;2022-08-25T11:50:36;99782.25;;;30.06;48.93
51031;BME280;37058;41.442;23.240;2022-08-25T11:53:30;99775.00;;;30.05;46.92
51031;BME280;37058;41.442;23.240;2022-08-25T12:04:31;99750.91;;;30.47;50.94
51031;BME280;37058;41.442;23.240;2022-08-25T12:15:24;99740.38;;;30.91;51.67
51031;BME280;37058;41.442;23.240;2022-08-25T12:18:15;99741.16;;;30.95;52.28
51031;BME280;37058;41.442;23.240;2022-08-25T12:32:21;99733.44;;;31.13;51.90
51031;BME280;37058;41.442;23.240;2022-08-25T12:35:27;99738.66;;;31.18;50.80
51031;BME280;37058;41.442;23.240;2022-08-25T12:43:33;99730.56;;;31.24;48.27
51031;BME280;37058;41.442;23.240;2022-08-25T12:49:31;99720.94;;;31.18;45.88
51031;BME280;37058;41.442;23.240;2022-08-25T12:52:22;99718.91;;;31.18;47.08
51031;BME280;37058;41.442;23.240;2022-08-25T12:55:03;99701.59;;;31.20;45.41
51031;BME280;37058;41.442;23.240;2022-08-25T12:57:53;99703.19;;;31.21;46.34
51031;BME280;37058;41.442;23.240;2022-08-25T13:00:32;99712.00;;;31.26;45.55
51031;BME280;37058;41.442;23.240;2022-08-25T13:06:18;99713.59;;;31.35;47.79
51031;BME280;37058;41.442;23.240;2022-08-25T13:09:18;99712.78;;;31.34;45.82
51031;BME280;37058;41.442;23.240;2022-08-25T13:14:40;99716.03;;;31.33;45.21
51031;BME280;37058;41.442;23.240;2022-08-25T13:17:07;99714.41;;;31.31;46.87
51031;BME280;37058;41.442;23.240;2022-08-25T13:19:35;99714.84;;;31.30;46.91
51031;BME280;37058;41.442;23.240;2022-08-25T13:22:13;99720.47;;;31.26;44.96
51031;BME280;37058;41.442;23.240;2022-08-25T13:24:43;99712.06;;;31.23;45.54
51031;BME280;37058;41.442;23.240;2022-08-25T13:27:21;99705.22;;;31.20;46.24
51031;BME280;37058;41.442;23.240;2022-08-25T13:29:56;99699.97;;;31.19;46.08
51031;BME280;37058;41.442;23.240;2022-08-25T13:32:40;99701.56;;;31.23;47.18
51031;BME280;37058;41.442;23.240;2022-08-25T13:35:21;99691.91;;;31.21;45.41
51031;BME280;37058;41.442;23.240;2022-08-25T13:37:48;99692.31;;;31.23;46.36
51031;BME280;37058;41.442;23.240;2022-08-25T13:40:25;99687.84;;;31.25;46.11
51031;BME280;37058;41.442;23.240;2022-08-25T13:42:59;99687.84;;;31.22;45.94
51031;BME280;37058;41.442;23.240;2022-08-25T13:45:31;99687.88;;;31.18;45.55
51031;BME280;37058;41.442;23.240;2022-08-25T13:48:01;99692.34;;;31.16;46.91
51031;BME280;37058;41.442;23.240;2022-08-25T13:52:56;99679.78;;;31.24;46.41
51031;BME280;37058;41.442;23.240;2022-08-25T13:58:05;99682.97;;;31.29;47.63
51031;BME280;37058;41.442;23.240;2022-08-25T14:03:38;99671.25;;;31.35;47.42
51031;BME280;37058;41.442;23.240;2022-08-25T14:09:06;99677.75;;;31.31;46.96
51031;BME280;37058;41.442;23.240;2022-08-25T14:11:41;99685.00;;;31.29;47.02
51031;BME280;37058;41.442;23.240;2022-08-25T14:17:07;99686.63;;;31.26;48.74
51031;BME280;37058;41.442;23.240;2022-08-25T14:19:35;99686.22;;;31.28;50.26
51031;BME280;37058;41.442;23.240;2022-08-25T14:22:02;99689.44;;;31.26;49.05
51031;BME280;37058;41.442;23.240;2022-08-25T14:24:34;99695.13;;;31.19;49.77
51031;BME280;37058;41.442;23.240;2022-08-25T14:27:01;99693.56;;;31.15;49.70
51031;BME280;37058;41.442;23.240;2022-08-25T14:29:28;99694.34;;;31.12;51.10
51031;BME280;37058;41.442;23.240;2022-08-25T14:31:55;99694.00;;;31.02;50.84
51031;BME280;37058;41.442;23.240;2022-08-25T14:34:26;99690.44;;;30.95;51.45
51031;BME280;37058;41.442;23.240;2022-08-25T14:36:54;99696.88;;;30.81;51.42
51031;BME280;37058;41.442;23.240;2022-08-25T14:39:20;99690.47;;;30.66;51.88
51031;BME280;37058;41.442;23.240;2022-08-25T14:41:46;99698.56;;;30.53;52.30
51031;BME280;37058;41.442;23.240;2022-08-25T14:44:13;99689.34;;;30.42;52.24
51031;BME280;37058;41.442;23.240;2022-08-25T14:46:57;99684.13;;;30.26;52.43
51031;BME280;37058;41.442;23.240;2022-08-25T14:49:28;99681.69;;;30.14;52.77
51031;BME280;37058;41.442;23.240;2022-08-25T14:52:06;99676.47;;;30.05;53.61
51031;BME280;37058;41.442;23.240;2022-08-25T14:54:33;99682.09;;;29.94;53.64
51031;BME280;37058;41.442;23.240;2022-08-25T14:56:59;99676.47;;;29.87;54.03
51031;BME280;37058;41.442;23.240;2022-08-25T14:59:25;99675.25;;;29.77;54.64
51031;BME280;37058;41.442;23.240;2022-08-25T15:01:52;99667.22;;;29.65;54.98
51031;BME280;37058;41.442;23.240;2022-08-25T15:04:21;99665.16;;;29.58;55.15
51031;BME280;37058;41.442;23.240;2022-08-25T15:06:55;99663.16;;;29.48;55.82